Página principal
METAR-TAF:

METAR-TAF

Aeroportos :

Aeroporto Internacional de Atenas

Atenas, Grécia

latitude: 37-56N, longitude: 023-56E, altura: 94 m

Observação actual do tempo

O boletim foi feito há 12 minutos, às 07:50 UTC
Vento 2 kt com direcção variável
Temperatura 24°C
Humidade 34%
Pressão 1013 hPa
Visibilidade 10 km ou mais
sem nuvens abaixo de 1500 metros e sem cumulonimbus

METAR: LGAV 300750Z VRB02KT CAVOK 24/07 Q1013 NOSIG

Hora: 11:02 (08:02 UTC)

Previsão

O boletim foi feito há 3 horas e 2 minutos, às 05:00 UTC
Previsão válida de 30 às 06 UTC a 01 às 06 UTC
Vento 10 kt de norte
Visibilidade 10 km ou mais
Poucas nuvensa uma altura de 2000 ft

TAF: LGAV 300500Z 3006/0106 35010KT 9999 FEW020

Observações e previsões do tempo de mais de 4000 aeroportos (mensagens METAR e TAF).

As estações disponíveis são os pontos amarelos e vermelhos sobre o mapa.

Mova o rato sobre o mapa para ver o nome da estação.

Depois clique no ponto para visualizar as observações e previsões meteorológicas.

Para alterar o mapa : clique nos botões verdes com uma cruz preta para aumentar o zoom; no botão verde com uma pitada de zoom; ou nas setas verdes para mapas adjacentes.


METAR-TAF: